createdAt,value
2023-05-30T00:02:02.062Z,100534.41
2023-05-30T00:04:31.644Z,100537.10
2023-05-30T00:07:00.288Z,100535.81
2023-05-30T00:09:28.382Z,100533.69
2023-05-30T00:11:56.738Z,100533.23
2023-05-30T00:14:27.667Z,100538.88
2023-05-30T00:16:57.920Z,100538.05
2023-05-30T00:19:26.194Z,100537.76
2023-05-30T00:21:55.990Z,100539.69
2023-05-30T00:24:25.982Z,100540.60
2023-05-30T00:26:54.107Z,100542.27
2023-05-30T00:29:22.149Z,100542.38
2023-05-30T00:31:50.336Z,100540.71
2023-05-30T00:34:18.629Z,100543.38
2023-05-30T00:36:47.897Z,100545.23
2023-05-30T00:39:16.683Z,100541.52
2023-05-30T00:41:45.069Z,100540.59
2023-05-30T00:44:13.241Z,100537.56
2023-05-30T00:46:41.886Z,100541.20
2023-05-30T00:49:10.330Z,100538.39
2023-05-30T00:51:39.507Z,100535.55
2023-05-30T00:54:08.997Z,100532.26
2023-05-30T00:56:37.887Z,100532.45
2023-05-30T00:59:07.197Z,100531.50
2023-05-30T01:01:35.504Z,100530.35
2023-05-30T01:04:03.647Z,100530.58
2023-05-30T01:06:33.808Z,100532.20
2023-05-30T01:09:04.119Z,100533.00
2023-05-30T01:11:53.757Z,100531.73
2023-05-30T01:14:24.801Z,100530.44
2023-05-30T01:17:03.627Z,100535.39
2023-05-30T01:20:11.116Z,100535.85
2023-05-30T01:22:57.719Z,100540.08
2023-05-30T01:25:50.998Z,100542.63
2023-05-30T01:28:22.547Z,100540.10
2023-05-30T01:30:53.990Z,100541.16
2023-05-30T01:33:23.700Z,100539.92
2023-05-30T01:35:54.551Z,100544.70
2023-05-30T01:38:23.010Z,100538.52
2023-05-30T01:40:55.888Z,100541.02
2023-05-30T01:43:45.986Z,100543.22
2023-05-30T01:46:37.506Z,100545.11
2023-05-30T01:49:11.413Z,100548.56
2023-05-30T01:51:51.898Z,100549.26
2023-05-30T01:54:21.907Z,100554.64
2023-05-30T01:57:07.914Z,100561.16
2023-05-30T01:59:38.677Z,100557.42
2023-05-30T02:02:08.392Z,100559.71
2023-05-30T02:04:37.120Z,100558.55
2023-05-30T02:07:05.964Z,100560.64
2023-05-30T02:09:34.298Z,100559.91
2023-05-30T02:12:03.582Z,100561.80
2023-05-30T02:14:32.370Z,100566.07
2023-05-30T02:17:01.013Z,100562.30
2023-05-30T02:19:30.770Z,100565.66
2023-05-30T02:21:58.841Z,100569.02
2023-05-30T02:24:26.929Z,100571.78
2023-05-30T02:26:55.498Z,100568.95
2023-05-30T02:29:23.676Z,100568.39
2023-05-30T02:31:51.959Z,100567.48
2023-05-30T02:34:20.220Z,100565.17
2023-05-30T02:36:48.397Z,100568.37
2023-05-30T02:39:16.669Z,100571.09
2023-05-30T02:41:45.152Z,100573.84
2023-05-30T02:44:13.530Z,100578.25
2023-05-30T02:46:42.647Z,100579.34
2023-05-30T02:49:11.043Z,100574.66
2023-05-30T02:51:39.591Z,100576.94
2023-05-30T02:54:08.612Z,100578.70
2023-05-30T02:56:59.398Z,100581.84
2023-05-30T02:59:47.016Z,100587.31
2023-05-30T03:02:15.393Z,100587.18
2023-05-30T03:04:47.049Z,100586.20
2023-05-30T03:07:19.175Z,100588.65
2023-05-30T03:09:48.412Z,100589.19
2023-05-30T03:12:17.104Z,100586.15
2023-05-30T03:14:45.808Z,100587.48
2023-05-30T03:17:15.120Z,100588.14
2023-05-30T03:19:43.803Z,100592.81
2023-05-30T03:22:13.501Z,100593.99
2023-05-30T03:24:42.079Z,100595.69
2023-05-30T03:27:11.098Z,100598.15
2023-05-30T03:29:40.049Z,100602.23
2023-05-30T03:32:09.266Z,100605.45
2023-05-30T03:34:38.144Z,100604.84
2023-05-30T03:37:07.039Z,100607.48
2023-05-30T03:39:35.092Z,100608.42
2023-05-30T03:42:03.506Z,100613.33
2023-05-30T03:44:31.676Z,100618.14
2023-05-30T03:47:00.872Z,100614.73
2023-05-30T03:49:29.220Z,100615.25
2023-05-30T03:51:57.435Z,100613.82
2023-05-30T03:54:25.600Z,100610.07
2023-05-30T03:56:53.871Z,100610.02
2023-05-30T03:59:22.732Z,100612.23
2023-05-30T04:01:50.976Z,100616.79
2023-05-30T04:04:19.286Z,100619.55
2023-05-30T04:06:49.487Z,100623.77
2023-05-30T04:09:17.610Z,100630.55
2023-05-30T04:11:45.657Z,100636.04
2023-05-30T04:14:14.129Z,100635.09
2023-05-30T04:16:42.236Z,100644.69
2023-05-30T04:19:10.280Z,100648.87
2023-05-30T04:21:39.167Z,100650.82
2023-05-30T04:24:08.641Z,100650.14
2023-05-30T04:26:37.992Z,100651.75
2023-05-30T04:29:09.727Z,100654.88
2023-05-30T04:31:38.849Z,100652.58
2023-05-30T04:34:07.308Z,100655.16
2023-05-30T04:36:38.004Z,100652.10
2023-05-30T04:39:06.736Z,100654.02
2023-05-30T04:41:35.444Z,100655.79
2023-05-30T04:44:05.019Z,100655.58
2023-05-30T04:46:33.088Z,100657.94
2023-05-30T04:49:03.107Z,100660.02
2023-05-30T04:51:34.391Z,100659.44
2023-05-30T04:54:02.901Z,100664.44
2023-05-30T04:56:31.201Z,100665.52
2023-05-30T04:58:59.376Z,100668.47
2023-05-30T05:01:27.819Z,100672.46
2023-05-30T05:03:56.254Z,100673.44
2023-05-30T05:06:24.664Z,100675.01
2023-05-30T05:08:52.992Z,100672.21
2023-05-30T05:11:24.632Z,100670.58
2023-05-30T05:13:52.822Z,100676.40
2023-05-30T05:16:21.277Z,100676.61
2023-05-30T05:18:51.014Z,100673.56
2023-05-30T05:21:19.409Z,100676.81
2023-05-30T05:23:47.777Z,100674.10
2023-05-30T05:26:16.559Z,100678.47
2023-05-30T05:28:44.665Z,100677.38
2023-05-30T05:31:12.808Z,100678.90
2023-05-30T05:33:40.979Z,100683.71
2023-05-30T05:36:09.358Z,100682.08
2023-05-30T05:38:37.447Z,100685.20
2023-05-30T05:41:05.704Z,100688.02
2023-05-30T05:43:33.895Z,100686.31
2023-05-30T05:46:01.973Z,100693.89
2023-05-30T05:48:30.167Z,100695.11
2023-05-30T05:50:58.516Z,100689.25
2023-05-30T05:53:26.777Z,100689.81
2023-05-30T05:55:56.117Z,100698.52
2023-05-30T05:58:24.188Z,100696.09
2023-05-30T06:00:52.854Z,100701.33
2023-05-30T06:03:21.193Z,100702.59
2023-05-30T06:05:49.489Z,100715.96
2023-05-30T06:08:17.563Z,100710.98
2023-05-30T06:10:46.383Z,100707.27
2023-05-30T06:13:14.473Z,100707.31
2023-05-30T06:15:42.819Z,100704.05
2023-05-30T06:18:11.295Z,100709.48
2023-05-30T06:20:39.277Z,100707.34
2023-05-30T06:23:07.422Z,100712.17
2023-05-30T06:25:35.800Z,100715.36
2023-05-30T06:28:04.073Z,100719.95
2023-05-30T06:30:32.243Z,100720.67
2023-05-30T06:33:00.360Z,100721.37
2023-05-30T06:35:28.587Z,100720.48
2023-05-30T06:37:56.698Z,100721.41
2023-05-30T06:40:25.197Z,100721.63
2023-05-30T06:42:53.444Z,100725.41
2023-05-30T06:45:22.001Z,100725.13
2023-05-30T06:47:50.046Z,100728.11
2023-05-30T06:50:18.276Z,100734.89
2023-05-30T06:52:46.628Z,100738.41
2023-05-30T06:55:16.641Z,100739.05
2023-05-30T06:57:47.418Z,100741.64
2023-05-30T07:00:18.380Z,100742.87
2023-05-30T07:02:47.062Z,100738.85
2023-05-30T07:05:15.405Z,100735.99
2023-05-30T07:07:44.568Z,100739.83
2023-05-30T07:10:13.912Z,100736.25
2023-05-30T07:12:42.063Z,100736.72
2023-05-30T07:15:11.456Z,100734.09
2023-05-30T07:17:39.641Z,100738.13
2023-05-30T07:20:09.217Z,100735.18
2023-05-30T07:22:39.462Z,100738.23
2023-05-30T07:25:08.134Z,100740.63
2023-05-30T07:27:36.470Z,100744.77
2023-05-30T07:30:05.099Z,100741.27
2023-05-30T07:32:33.595Z,100744.45
2023-05-30T07:35:02.370Z,100744.39
2023-05-30T07:37:30.651Z,100737.64
2023-05-30T07:40:05.261Z,100738.20
2023-05-30T07:42:34.686Z,100743.08
2023-05-30T07:45:02.873Z,100745.29
2023-05-30T07:47:31.170Z,100741.16
2023-05-30T07:49:59.742Z,100740.04
2023-05-30T07:52:27.889Z,100735.39
2023-05-30T07:54:56.358Z,100732.86
2023-05-30T07:57:24.430Z,100736.40
2023-05-30T07:59:52.533Z,100735.64
2023-05-30T08:02:22.356Z,100739.63
2023-05-30T08:04:50.576Z,100744.80
2023-05-30T08:07:18.761Z,100744.02
2023-05-30T08:09:47.144Z,100740.70
2023-05-30T08:12:19.819Z,100739.49
2023-05-30T08:14:48.512Z,100736.88
2023-05-30T08:17:17.730Z,100736.98
2023-05-30T08:19:46.402Z,100735.90
2023-05-30T08:22:14.564Z,100736.70
2023-05-30T08:24:43.045Z,100735.00
2023-05-30T08:27:12.137Z,100738.05
2023-05-30T08:29:42.380Z,100736.52
2023-05-30T08:32:10.643Z,100741.56
2023-05-30T08:34:39.944Z,100737.66
2023-05-30T08:37:08.111Z,100739.73
2023-05-30T08:39:36.145Z,100739.36
2023-05-30T08:42:05.524Z,100739.27
2023-05-30T08:44:34.178Z,100746.09
2023-05-30T08:47:02.700Z,100744.44
2023-05-30T08:49:35.032Z,100748.55
2023-05-30T08:52:04.432Z,100757.18
2023-05-30T08:54:43.126Z,100752.37
2023-05-30T08:57:18.519Z,100759.55
2023-05-30T08:59:50.736Z,100755.52
2023-05-30T09:02:22.160Z,100762.27
2023-05-30T09:04:52.136Z,100758.88
2023-05-30T09:07:22.656Z,100750.99
2023-05-30T09:09:52.777Z,100752.73
2023-05-30T09:12:22.482Z,100748.71
2023-05-30T09:14:50.576Z,100747.38
2023-05-30T09:17:19.133Z,100761.62
2023-05-30T09:19:47.821Z,100761.44
2023-05-30T09:22:17.022Z,100758.46
2023-05-30T09:24:56.437Z,100764.83
2023-05-30T09:27:25.925Z,100761.30
2023-05-30T09:29:54.262Z,100764.23
2023-05-30T09:32:36.296Z,100758.70
2023-05-30T09:35:07.634Z,100759.89
2023-05-30T09:37:37.886Z,100759.67
2023-05-30T09:40:08.297Z,100761.98
2023-05-30T09:42:45.220Z,100754.36
2023-05-30T09:45:19.397Z,100762.33
2023-05-30T09:47:49.747Z,100758.85
2023-05-30T09:50:22.775Z,100757.58
2023-05-30T09:52:53.537Z,100752.80
2023-05-30T09:55:21.955Z,100755.05
2023-05-30T09:57:52.123Z,100753.70
2023-05-30T10:00:25.884Z,100761.73
2023-05-30T10:02:55.760Z,100758.23
2023-05-30T10:05:29.776Z,100759.29
2023-05-30T10:07:59.488Z,100765.89
2023-05-30T10:10:28.408Z,100770.55
2023-05-30T10:12:59.040Z,100763.30
2023-05-30T10:15:27.581Z,100763.02
2023-05-30T10:18:10.385Z,100759.15
2023-05-30T10:20:46.025Z,100759.15
2023-05-30T10:23:15.098Z,100761.42
2023-05-30T10:25:51.081Z,100770.13
2023-05-30T10:28:27.707Z,100772.85
2023-05-30T10:30:57.827Z,100767.30
2023-05-30T10:33:43.885Z,100766.04
2023-05-30T10:36:18.428Z,100759.29
2023-05-30T10:39:24.488Z,100757.52
2023-05-30T10:42:01.273Z,100761.60
2023-05-30T10:44:41.929Z,100767.20
2023-05-30T10:47:35.117Z,100768.20
2023-05-30T10:50:08.655Z,100766.31
2023-05-30T10:52:36.801Z,100765.33
2023-05-30T10:55:12.045Z,100763.98
2023-05-30T10:57:42.517Z,100765.13
2023-05-30T11:00:27.402Z,100765.89
2023-05-30T11:02:58.802Z,100761.91
2023-05-30T11:05:34.326Z,100759.13
2023-05-30T11:08:03.303Z,100760.36
2023-05-30T11:10:33.238Z,100761.60
2023-05-30T11:13:12.887Z,100763.33
2023-05-30T11:15:47.699Z,100766.17
2023-05-30T11:18:17.800Z,100778.84
2023-05-30T11:20:53.238Z,100771.04
2023-05-30T11:23:23.205Z,100765.19
2023-05-30T11:25:54.883Z,100764.02
2023-05-30T11:28:35.812Z,100767.92
2023-05-30T11:31:18.570Z,100769.54
2023-05-30T11:33:48.384Z,100773.33
2023-05-30T11:36:16.588Z,100775.52
2023-05-30T11:38:48.458Z,100771.42
2023-05-30T11:41:17.449Z,100771.95
2023-05-30T11:43:46.574Z,100770.58
2023-05-30T11:46:19.876Z,100770.02
2023-05-30T11:48:48.151Z,100768.94
2023-05-30T11:59:00.160Z,100767.36
2023-05-30T12:01:28.677Z,100768.20
2023-05-30T12:03:57.462Z,100766.53
2023-05-30T12:06:25.598Z,100769.29
2023-05-30T12:08:53.765Z,100770.14
2023-05-30T12:11:22.980Z,100758.98
2023-05-30T12:13:55.445Z,100757.09
2023-05-30T12:16:24.545Z,100754.55
2023-05-30T12:18:52.850Z,100759.16
2023-05-30T12:21:21.042Z,100760.77
2023-05-30T12:23:49.285Z,100766.14
2023-05-30T12:26:19.371Z,100767.55
2023-05-30T12:28:49.243Z,100763.81
2023-05-30T12:31:24.807Z,100771.54
2023-05-30T12:33:53.036Z,100767.95
2023-05-30T12:36:30.059Z,100763.76
2023-05-30T12:39:02.278Z,100764.59
2023-05-30T12:41:32.056Z,100759.13
2023-05-30T12:44:00.356Z,100760.22
2023-05-30T12:46:29.412Z,100767.29
2023-05-30T12:48:57.997Z,100762.46
2023-05-30T12:51:26.814Z,100767.38
2023-05-30T12:53:55.013Z,100765.95
2023-05-30T12:56:23.474Z,100758.83
2023-05-30T12:58:51.473Z,100755.66
2023-05-30T13:01:19.920Z,100756.48
2023-05-30T13:03:49.775Z,100761.74
2023-05-30T13:06:18.108Z,100758.62
2023-05-30T13:08:46.409Z,100759.89
2023-05-30T13:11:14.581Z,100767.70
2023-05-30T13:13:43.036Z,100764.39
2023-05-30T13:16:11.137Z,100759.73
2023-05-30T13:18:39.402Z,100769.68
2023-05-30T13:21:07.773Z,100767.41
2023-05-30T13:23:36.342Z,100761.05
2023-05-30T13:26:04.517Z,100770.98
2023-05-30T13:28:33.934Z,100772.63
2023-05-30T13:31:04.877Z,100767.05
2023-05-30T13:33:35.096Z,100767.20
2023-05-30T13:36:03.574Z,100762.99
2023-05-30T13:38:31.938Z,100761.00
2023-05-30T13:41:00.499Z,100768.92
2023-05-30T13:43:28.942Z,100768.58
2023-05-30T13:45:57.519Z,100766.89
2023-05-30T13:48:25.801Z,100765.19
2023-05-30T13:50:53.847Z,100769.98
2023-05-30T13:53:30.435Z,100767.60
2023-05-30T13:56:03.913Z,100758.29
2023-05-30T13:58:32.120Z,100762.09
2023-05-30T14:01:04.564Z,100759.38
2023-05-30T14:03:33.222Z,100765.19
2023-05-30T14:06:05.916Z,100759.74
2023-05-30T14:08:34.942Z,100764.04
2023-05-30T14:11:03.187Z,100761.16
2023-05-30T14:13:31.561Z,100759.23
2023-05-30T14:15:59.867Z,100761.55
2023-05-30T14:18:28.665Z,100762.59
2023-05-30T14:20:56.860Z,100758.30
2023-05-30T14:23:24.980Z,100759.53
2023-05-30T14:25:53.065Z,100764.59
2023-05-30T14:28:21.216Z,100765.48
2023-05-30T14:30:49.395Z,100771.40
2023-05-30T14:33:17.615Z,100765.80
2023-05-30T14:35:46.029Z,100767.14
2023-05-30T14:38:14.116Z,100767.52
2023-05-30T14:40:42.199Z,100767.24
2023-05-30T14:43:11.197Z,100763.73
2023-05-30T14:45:39.516Z,100764.02
2023-05-30T14:48:09.224Z,100762.08
2023-05-30T14:50:37.544Z,100765.71
2023-05-30T14:53:05.647Z,100759.73
2023-05-30T14:55:34.228Z,100761.23
2023-05-30T14:58:02.885Z,100763.35
2023-05-30T15:00:31.372Z,100763.15
2023-05-30T15:02:59.749Z,100752.14
2023-05-30T15:05:28.443Z,100762.83
2023-05-30T15:07:56.922Z,100762.30
2023-05-30T15:10:25.151Z,100760.90
2023-05-30T15:12:53.365Z,100759.70
2023-05-30T15:15:21.633Z,100760.28
2023-05-30T15:17:49.724Z,100765.41
2023-05-30T15:20:18.227Z,100760.48
2023-05-30T15:22:47.928Z,100756.45
2023-05-30T15:25:17.007Z,100750.86
2023-05-30T15:27:45.089Z,100750.84
2023-05-30T15:30:13.486Z,100752.17
2023-05-30T15:32:41.837Z,100751.46
2023-05-30T15:35:10.067Z,100755.52
2023-05-30T15:37:38.304Z,100747.73
2023-05-30T15:40:07.565Z,100752.88
2023-05-30T15:42:35.669Z,100751.39
2023-05-30T15:45:04.716Z,100754.30
2023-05-30T15:47:33.154Z,100754.44
2023-05-30T15:50:01.741Z,100747.50
2023-05-30T15:52:29.805Z,100746.29
2023-05-30T15:54:57.809Z,100748.34
2023-05-30T15:57:25.853Z,100750.14
2023-05-30T15:59:54.026Z,100747.75
2023-05-30T16:02:22.195Z,100750.52
2023-05-30T16:04:50.279Z,100745.00
2023-05-30T16:07:18.392Z,100752.64
2023-05-30T16:09:46.729Z,100759.46
2023-05-30T16:12:14.766Z,100754.55
2023-05-30T16:14:42.778Z,100753.86
2023-05-30T16:17:10.816Z,100754.70
2023-05-30T16:19:38.725Z,100758.14
2023-05-30T16:22:07.215Z,100758.23
2023-05-30T16:24:35.154Z,100762.70
2023-05-30T16:31:38.299Z,100766.78
2023-05-30T16:34:06.390Z,100763.76
2023-05-30T16:36:34.734Z,100763.34
2023-05-30T16:39:02.782Z,100768.89
2023-05-30T16:41:30.751Z,100773.05
2023-05-30T16:43:59.108Z,100771.30
2023-05-30T16:46:27.314Z,100771.96
2023-05-30T16:48:55.478Z,100774.13
2023-05-30T16:51:23.553Z,100776.11
2023-05-30T16:53:54.589Z,100774.53
2023-05-30T17:05:29.237Z,100785.08
2023-05-30T17:07:57.330Z,100792.48
2023-05-30T17:10:25.558Z,100787.05
2023-05-30T17:12:53.511Z,100787.98
2023-05-30T17:15:21.694Z,100790.35
2023-05-30T17:17:53.226Z,100790.34
2023-05-30T17:20:21.564Z,100793.19
2023-05-30T17:22:49.574Z,100794.45
2023-05-30T17:25:17.596Z,100801.89
2023-05-30T17:27:47.780Z,100801.02
2023-05-30T17:30:16.348Z,100799.47
2023-05-30T17:32:44.485Z,100801.74
2023-05-30T17:35:12.563Z,100803.84
2023-05-30T17:37:40.622Z,100800.83
2023-05-30T17:40:09.930Z,100807.21
2023-05-30T17:42:38.158Z,100808.35
2023-05-30T17:45:07.086Z,100808.33
2023-05-30T17:47:35.098Z,100812.78
2023-05-30T17:50:04.037Z,100815.52
2023-05-30T17:52:32.059Z,100814.39
2023-05-30T17:54:59.993Z,100813.55
2023-05-30T17:57:28.144Z,100813.36
2023-05-30T17:59:56.312Z,100816.29
2023-05-30T18:02:24.568Z,100817.98
2023-05-30T18:04:52.592Z,100819.35
2023-05-30T18:07:20.588Z,100824.38
2023-05-30T18:09:48.653Z,100828.66
2023-05-30T18:12:16.882Z,100830.90
2023-05-30T18:14:44.831Z,100832.74
2023-05-30T18:17:12.811Z,100834.55
2023-05-30T18:19:40.829Z,100834.08
2023-05-30T18:22:08.815Z,100834.95
2023-05-30T18:24:36.754Z,100845.24
2023-05-30T18:27:05.049Z,100846.28
2023-05-30T18:29:36.430Z,100845.42
2023-05-30T18:32:04.804Z,100842.91
2023-05-30T18:34:33.481Z,100843.35
2023-05-30T18:37:01.466Z,100847.17
2023-05-30T18:39:29.400Z,100851.37
2023-05-30T18:41:57.348Z,100854.45
2023-05-30T18:44:25.269Z,100857.73
2023-05-30T18:46:53.205Z,100859.42
2023-05-30T18:49:21.443Z,100862.77
2023-05-30T18:51:51.829Z,100863.66
2023-05-30T18:54:19.884Z,100862.86
2023-05-30T18:56:48.142Z,100868.77
2023-05-30T18:59:16.090Z,100871.21
2023-05-30T19:01:44.231Z,100873.69
2023-05-30T19:04:12.367Z,100875.27
2023-05-30T19:06:40.351Z,100879.25
2023-05-30T19:09:08.330Z,100887.09
2023-05-30T19:11:36.587Z,100884.99
2023-05-30T19:18:39.208Z,100896.69
2023-05-30T19:21:07.152Z,100902.23
2023-05-30T19:23:35.143Z,100901.82
2023-05-30T19:26:04.086Z,100903.92
2023-05-30T19:28:35.312Z,100904.80
2023-05-30T19:31:04.604Z,100910.09
2023-05-30T19:33:32.570Z,100907.77
2023-05-30T19:36:02.305Z,100910.22
2023-05-30T19:38:30.622Z,100907.42
2023-05-30T19:41:00.335Z,100910.77
2023-05-30T19:43:28.475Z,100912.50
2023-05-30T19:45:56.381Z,100914.12
2023-05-30T19:48:24.597Z,100918.69
2023-05-30T19:50:52.829Z,100920.56
2023-05-30T19:53:20.782Z,100925.50
2023-05-30T19:55:48.684Z,100929.70
2023-05-30T19:58:22.280Z,100931.60
2023-05-30T20:00:51.380Z,100934.67
2023-05-30T20:03:20.100Z,100939.84
2023-05-30T20:05:48.265Z,100941.20
2023-05-30T20:08:16.487Z,100939.61
2023-05-30T20:10:44.460Z,100940.48
2023-05-30T20:13:12.850Z,100940.15
2023-05-30T20:15:40.909Z,100939.08
2023-05-30T20:22:43.218Z,100937.96
2023-05-30T20:25:11.244Z,100938.17
2023-05-30T20:27:39.473Z,100940.98
2023-05-30T20:30:08.198Z,100938.16
2023-05-30T20:32:36.402Z,100939.98
2023-05-30T20:35:04.669Z,100940.40
2023-05-30T20:37:32.911Z,100939.90
2023-05-30T20:40:01.171Z,100941.29
2023-05-30T20:42:29.162Z,100942.33
2023-05-30T20:44:57.418Z,100948.76
2023-05-30T20:47:25.517Z,100955.90
2023-05-30T20:49:53.724Z,100958.31
2023-05-30T20:52:21.751Z,100956.41
2023-05-30T20:54:49.917Z,100957.46
2023-05-30T20:57:22.433Z,100960.11
2023-05-30T20:59:50.947Z,100960.19
2023-05-30T21:02:19.168Z,100963.82
2023-05-30T21:04:47.387Z,100968.87
2023-05-30T21:07:15.439Z,100966.59
2023-05-30T21:09:43.547Z,100968.83
2023-05-30T21:12:11.944Z,100969.88
2023-05-30T21:14:40.814Z,100975.06
2023-05-30T21:17:11.705Z,100976.80
2023-05-30T21:19:39.945Z,100973.84
2023-05-30T21:22:07.980Z,100977.09
2023-05-30T21:24:36.053Z,100975.64
2023-05-30T21:27:04.476Z,100977.48
2023-05-30T21:29:32.618Z,100981.80
2023-05-30T21:32:00.863Z,100986.45
2023-05-30T21:34:29.818Z,100987.97
2023-05-30T21:36:58.823Z,100992.06
2023-05-30T21:39:26.893Z,100998.46
2023-05-30T21:41:55.946Z,101000.36
2023-05-30T21:44:24.044Z,101003.59
2023-05-30T21:46:52.056Z,101002.41
2023-05-30T21:49:20.105Z,101000.36
2023-05-30T21:51:48.146Z,101001.38
2023-05-30T21:54:35.853Z,100998.45
2023-05-30T21:57:05.826Z,100996.77
2023-05-30T21:59:35.311Z,100993.89
2023-05-30T22:02:05.911Z,100996.23
2023-05-30T22:04:35.922Z,100997.92
2023-05-30T22:07:08.221Z,101003.61
2023-05-30T22:09:37.873Z,101007.41
2023-05-30T22:12:07.875Z,101009.80
2023-05-30T22:14:39.738Z,101014.58
2023-05-30T22:17:11.889Z,101017.74
2023-05-30T22:19:43.898Z,101019.39
2023-05-30T22:22:14.863Z,101021.39
2023-05-30T22:24:45.896Z,101023.71
2023-05-30T22:27:17.884Z,101022.22
2023-05-30T22:29:48.872Z,101022.55
2023-05-30T22:32:19.937Z,101025.29
2023-05-30T22:34:50.149Z,101024.58
2023-05-30T22:37:20.099Z,101025.94
2023-05-30T22:39:50.063Z,101025.80
2023-05-30T22:42:21.314Z,101031.14
2023-05-30T22:44:51.936Z,101027.35
2023-05-30T22:47:23.270Z,101031.05
2023-05-30T22:49:54.914Z,101032.08
2023-05-30T22:52:26.939Z,101037.13
2023-05-30T22:54:57.939Z,101037.38
2023-05-30T22:57:28.942Z,101037.30
2023-05-30T22:59:59.934Z,101038.20
2023-05-30T23:02:31.003Z,101034.30
2023-05-30T23:05:02.311Z,101033.14
2023-05-30T23:07:33.109Z,101037.06
2023-05-30T23:10:03.961Z,101035.45
2023-05-30T23:20:08.337Z,101036.42
2023-05-30T23:22:36.486Z,101036.45
2023-05-30T23:25:05.274Z,101038.70
2023-05-30T23:27:33.354Z,101043.54
2023-05-30T23:30:01.417Z,101040.40
2023-05-30T23:32:29.668Z,101040.04
2023-05-30T23:34:57.765Z,101041.78
2023-05-30T23:37:25.731Z,101041.05
2023-05-30T23:39:53.828Z,101042.25
2023-05-30T23:42:21.887Z,101043.09
2023-05-30T23:44:50.051Z,101038.36
2023-05-30T23:47:18.121Z,101040.56
2023-05-30T23:49:46.494Z,101040.35
2023-05-30T23:52:15.109Z,101039.44
2023-05-30T23:54:43.145Z,101037.23
2023-05-30T23:57:11.529Z,101038.33
2023-05-30T23:59:41.779Z,101038.38
